Time;durP1;ratioP1;P1;durP2;ratioP2;P2;SDS_P1;SDS_P2;PMS_P1;PMS_P2;Temp;Humidity;BMP_temperature;BMP_pressure;BME280_temperature;BME280_humidity;BME280_pressure;Samples;Min_cycle;Max_cycle;Signal;HPM_P1;HPM_P2
2022/03/10 00:00:56;;;;;;;21.47;10.57;;;4.00;70.00;;;;;;4937580;29;20027;-79
2022/03/10 00:03:22;;;;;;;25.80;10.97;;;3.90;70.40;;;;;;4939369;29;20034;-80
2022/03/10 00:05:48;;;;;;;27.33;11.33;;;3.90;71.20;;;;;;4937289;29;20023;-78
2022/03/10 00:08:13;;;;;;;25.10;11.07;;;3.80;70.80;;;;;;4938057;29;20023;-77
2022/03/10 00:10:39;;;;;;;25.83;11.80;;;3.70;73.10;;;;;;4937579;29;20484;-78
2022/03/10 00:13:05;;;;;;;27.70;11.47;;;3.60;73.20;;;;;;4940877;29;20042;-79
2022/03/10 00:15:31;;;;;;;26.30;11.77;;;3.60;73.50;;;;;;4954104;29;20481;-79
2022/03/10 00:17:56;;;;;;;26.83;12.00;;;3.60;73.40;;;;;;4937116;29;20031;-79
2022/03/10 00:20:22;;;;;;;25.93;12.33;;;3.60;74.00;;;;;;4931153;29;20062;-80
2022/03/10 00:22:51;;;;;;;25.03;11.93;;;3.60;73.90;;;;;;4954378;29;20106;-80
2022/03/10 00:25:18;;;;;;;30.57;12.00;;;3.50;74.70;;;;;;4937649;29;20126;-80
2022/03/10 00:27:44;;;;;;;27.93;13.00;;;3.50;75.00;;;;;;4937967;29;20384;-80
2022/03/10 00:30:10;;;;;;;27.87;12.77;;;3.50;75.20;;;;;;4939667;29;20088;-80
2022/03/10 00:32:47;;;;;;;26.33;12.00;;;3.40;77.40;;;;;;4941887;29;20493;-78
2022/03/10 00:35:22;;;;;;;28.33;12.47;;;3.30;79.50;;;;;;4947478;29;20047;-78
2022/03/10 00:37:48;;;;;;;29.00;12.80;;;3.30;79.80;;;;;;4927460;29;20465;-77
2022/03/10 00:40:15;;;;;;;29.63;12.07;;;3.30;79.90;;;;;;4958481;29;20110;-78
2022/03/10 00:42:42;;;;;;;30.50;12.73;;;3.30;80.10;;;;;;4941967;29;20031;-79
2022/03/10 00:45:08;;;;;;;26.43;11.87;;;3.30;79.80;;;;;;4941436;29;20251;-79
2022/03/10 00:47:34;;;;;;;28.70;12.33;;;3.30;80.50;;;;;;4939611;29;20023;-79
2022/03/10 00:50:00;;;;;;;28.00;12.50;;;3.30;80.50;;;;;;4928356;29;20384;-78
2022/03/10 00:52:27;;;;;;;26.77;12.00;;;3.30;79.80;;;;;;4958085;29;20049;-78
2022/03/10 00:54:53;;;;;;;26.27;12.53;;;3.30;80.20;;;;;;4957679;29;20058;-79
2022/03/10 00:57:19;;;;;;;29.53;12.87;;;3.30;80.00;;;;;;4928162;29;20051;-78
2022/03/10 00:59:44;;;;;;;26.33;13.07;;;3.30;81.40;;;;;;4930916;29;20516;-77
2022/03/10 01:02:10;;;;;;;22.33;11.73;;;3.30;86.10;;;;;;4930440;29;20027;-77
2022/03/10 01:04:36;;;;;;;29.07;12.13;;;3.20;84.70;;;;;;4929471;29;20392;-77
2022/03/10 01:07:02;;;;;;;26.53;12.43;;;3.20;85.10;;;;;;4926516;29;20047;-77
2022/03/10 01:09:27;;;;;;;26.27;12.37;;;3.20;85.50;;;;;;4932708;29;20465;-78
2022/03/10 01:11:53;;;;;;;30.03;12.40;;;3.20;87.40;;;;;;4954086;29;20028;-77
2022/03/10 01:14:19;;;;;;;29.50;13.27;;;3.10;86.80;;;;;;4925525;29;20040;-78
2022/03/10 01:16:44;;;;;;;26.93;13.13;;;3.10;87.70;;;;;;4935438;29;20051;-77
2022/03/10 01:19:10;;;;;;;24.43;12.20;;;3.20;88.10;;;;;;4932121;29;20504;-77
2022/03/10 01:21:36;;;;;;;29.67;12.27;;;3.10;87.80;;;;;;4922112;29;20028;-77
2022/03/10 01:24:02;;;;;;;28.97;12.90;;;3.10;88.20;;;;;;4921593;29;20028;-78
2022/03/10 01:26:28;;;;;;;31.30;13.23;;;3.20;89.40;;;;;;4921534;29;20091;-77
2022/03/10 01:28:54;;;;;;;27.27;12.23;;;3.10;90.40;;;;;;4938321;29;20032;-77
2022/03/10 01:31:19;;;;;;;26.90;11.83;;;3.10;90.30;;;;;;4921296;29;20032;-77
2022/03/10 01:33:45;;;;;;;24.93;12.10;;;3.10;91.00;;;;;;4921913;29;20183;-77
2022/03/10 01:36:10;;;;;;;27.10;11.93;;;3.10;91.40;;;;;;4921132;29;20035;-77
2022/03/10 01:38:39;;;;;;;25.53;12.40;;;3.10;92.40;;;;;;4921947;29;20028;-77
2022/03/10 01:41:11;;;;;;;27.10;13.03;;;3.10;92.20;;;;;;4920324;29;20028;-77
2022/03/10 01:43:56;;;;;;;;;;;3.10;92.00;;;;;;4938853;29;20222;-77
2022/03/10 01:46:21;;;;;;;23.73;11.00;;;3.10;92.10;;;;;;4921696;29;19970;-78
2022/03/10 01:48:48;;;;;;;26.77;11.67;;;3.10;91.70;;;;;;4921406;29;20073;-78
2022/03/10 01:51:13;;;;;;;24.70;12.33;;;3.00;91.50;;;;;;4920807;29;20086;-78
2022/03/10 01:53:41;;;;;;;24.23;11.80;;;2.90;92.10;;;;;;4921746;29;20122;-78
2022/03/10 01:56:07;;;;;;;23.63;11.67;;;2.90;91.50;;;;;;4920952;29;20051;-78
2022/03/10 01:58:34;;;;;;;27.80;12.73;;;2.90;90.70;;;;;;4921520;29;20179;-78
2022/03/10 02:01:00;;;;;;;28.63;11.80;;;2.90;90.40;;;;;;4937999;29;20028;-78
2022/03/10 02:03:28;;;;;;;23.37;10.83;;;2.90;90.70;;;;;;4938511;29;20035;-78
2022/03/10 02:05:54;;;;;;;24.43;11.90;;;2.90;91.60;;;;;;4921080;29;20028;-78
2022/03/10 02:11:06;;;;;;;26.93;11.37;;;2.80;91.60;;;;;;4937626;29;20507;-78
2022/03/10 02:13:32;;;;;;;27.33;11.67;;;2.70;91.90;;;;;;4920416;29;20541;-77
2022/03/10 02:18:42;;;;;;;23.43;11.80;;;2.50;92.60;;;;;;4938181;29;20138;-77
2022/03/10 02:21:07;;;;;;;24.10;11.13;;;2.40;93.30;;;;;;4920006;29;20058;-77
2022/03/10 02:23:33;;;;;;;24.10;11.27;;;2.30;93.50;;;;;;4920743;29;20038;-77
2022/03/10 02:25:59;;;;;;;24.47;11.10;;;2.20;93.80;;;;;;4920329;29;20358;-77
2022/03/10 02:28:26;;;;;;;24.93;11.93;;;2.20;93.40;;;;;;4920297;29;20035;-77
2022/03/10 02:30:52;;;;;;;27.67;11.40;;;2.20;93.30;;;;;;4920333;29;20059;-77
2022/03/10 02:33:18;;;;;;;25.93;11.47;;;2.20;93.80;;;;;;4919642;29;20035;-77
2022/03/10 02:35:44;;;;;;;24.13;11.37;;;2.10;93.50;;;;;;4920110;29;20461;-75
2022/03/10 02:38:17;;;;;;;30.23;13.40;;;2.00;94.10;;;;;;4936664;29;20091;-78
2022/03/10 02:40:44;;;;;;;23.10;11.67;;;1.90;94.30;;;;;;4920499;29;20032;-74
2022/03/10 02:43:10;;;;;;;27.43;11.93;;;1.90;94.60;;;;;;4936437;29;20470;-74
2022/03/10 02:45:36;;;;;;;28.93;12.30;;;1.90;94.10;;;;;;4920012;29;20047;-75
2022/03/10 02:48:02;;;;;;;26.83;11.47;;;1.90;93.40;;;;;;4919638;29;20028;-75
2022/03/10 02:50:28;;;;;;;24.13;11.10;;;1.90;93.10;;;;;;4920017;29;20027;-75
2022/03/10 02:52:54;;;;;;;26.97;11.73;;;2.00;93.00;;;;;;4920032;29;20027;-75
2022/03/10 02:55:20;;;;;;;24.37;10.97;;;2.00;92.50;;;;;;4936053;29;20036;-78
2022/03/10 02:57:45;;;;;;;25.83;11.97;;;2.10;92.40;;;;;;4920360;29;20055;-74
2022/03/10 03:00:14;;;;;;;28.80;12.47;;;2.10;92.30;;;;;;4919230;29;20028;-78
2022/03/10 03:02:40;;;;;;;27.20;12.53;;;2.00;92.70;;;;;;4919506;29;20119;-77
2022/03/10 03:05:06;;;;;;;27.77;12.30;;;2.00;92.90;;;;;;4918965;29;20122;-78
2022/03/10 03:07:34;;;;;;;26.87;11.83;;;2.10;92.80;;;;;;4919222;29;20028;-78
2022/03/10 03:09:59;;;;;;;28.77;11.53;;;2.10;93.00;;;;;;4935790;29;20106;-76
2022/03/10 03:12:25;;;;;;;24.43;11.87;;;2.00;93.40;;;;;;4936332;29;20115;-76
2022/03/10 03:14:51;;;;;;;26.17;12.03;;;2.10;93.40;;;;;;4919328;29;20508;-76
2022/03/10 03:17:16;;;;;;;31.10;13.00;;;2.10;93.70;;;;;;4919422;29;20031;-76
2022/03/10 03:19:42;;;;;;;27.23;12.57;;;2.00;94.20;;;;;;4919827;29;20024;-77
2022/03/10 03:22:08;;;;;;;25.40;11.83;;;2.10;94.20;;;;;;4919339;29;20031;-77
2022/03/10 03:24:34;;;;;;;27.47;11.73;;;2.10;94.30;;;;;;4919916;29;20086;-76
2022/03/10 03:26:59;;;;;;;27.37;12.03;;;2.10;94.60;;;;;;4936075;29;20601;-76
2022/03/10 03:29:25;;;;;;;25.50;11.63;;;2.10;95.10;;;;;;4936560;29;20031;-77
2022/03/10 03:31:51;;;;;;;29.07;12.17;;;2.10;95.40;;;;;;4919497;29;20034;-77
2022/03/10 03:34:16;;;;;;;29.53;12.80;;;2.10;95.80;;;;;;4918705;29;20590;-77
2022/03/10 03:36:44;;;;;;;29.00;12.57;;;2.20;95.50;;;;;;4935881;29;20031;-76
2022/03/10 03:39:11;;;;;;;22.57;12.03;;;2.20;95.60;;;;;;4918738;29;20059;-76
2022/03/10 03:41:37;;;;;;;24.70;12.17;;;2.10;95.70;;;;;;4919263;29;20063;-76
2022/03/10 03:44:03;;;;;;;27.43;11.67;;;2.10;96.20;;;;;;4919074;29;20528;-76
2022/03/10 03:46:29;;;;;;;25.63;11.87;;;2.10;96.60;;;;;;4919755;29;20032;-76
2022/03/10 03:48:55;;;;;;;24.73;12.23;;;2.10;96.20;;;;;;4919562;29;20031;-77
2022/03/10 03:51:22;;;;;;;25.17;11.80;;;2.00;96.40;;;;;;4918900;29;20024;-77
2022/03/10 03:53:48;;;;;;;27.60;12.60;;;2.00;96.50;;;;;;4919204;29;20027;-76
2022/03/10 03:56:14;;;;;;;26.13;12.60;;;2.00;96.20;;;;;;4935325;29;20497;-77
2022/03/10 03:58:39;;;;;;;26.37;12.43;;;2.00;95.90;;;;;;4919271;29;20031;-76
2022/03/10 04:01:05;;;;;;;25.33;11.00;;;2.00;96.00;;;;;;4918559;29;20028;-77
2022/03/10 04:03:31;;;;;;;31.00;12.80;;;2.00;96.00;;;;;;4936131;29;20381;-76
2022/03/10 04:05:56;;;;;;;27.93;12.33;;;2.00;96.10;;;;;;4938412;29;20066;-76
2022/03/10 04:08:22;;;;;;;23.87;11.00;;;1.90;96.20;;;;;;4922831;29;20035;-76
2022/03/10 04:10:48;;;;;;;27.27;11.83;;;1.90;96.40;;;;;;4923223;29;20027;-77
2022/03/10 04:13:14;;;;;;;25.60;11.37;;;1.80;96.30;;;;;;4922846;29;20028;-77
2022/03/10 04:15:39;;;;;;;27.00;12.70;;;1.80;96.10;;;;;;4922871;29;20086;-77
2022/03/10 04:18:05;;;;;;;26.00;11.97;;;1.80;95.70;;;;;;4921974;29;20054;-76
2022/03/10 04:20:31;;;;;;;34.13;12.57;;;1.80;95.70;;;;;;4940104;29;20042;-77
2022/03/10 04:22:57;;;;;;;26.17;12.00;;;1.80;95.90;;;;;;4922807;29;20034;-76
2022/03/10 04:25:23;;;;;;;26.00;11.97;;;1.80;95.80;;;;;;4922223;29;20032;-76
2022/03/10 04:27:49;;;;;;;30.03;12.60;;;1.70;95.80;;;;;;4939373;29;20042;-76
2022/03/10 04:30:15;;;;;;;25.07;11.97;;;1.70;95.90;;;;;;4939126;29;20063;-77
2022/03/10 04:32:45;;;;;;;28.07;12.13;;;1.60;96.30;;;;;;4939574;29;20031;-77
2022/03/10 04:35:14;;;;;;;27.87;11.53;;;1.60;96.00;;;;;;4939102;29;20032;-78
2022/03/10 04:37:40;;;;;;;26.40;12.23;;;1.60;95.90;;;;;;4939676;29;20040;-77
2022/03/10 04:40:07;;;;;;;24.97;11.03;;;1.50;96.50;;;;;;4922040;29;20083;-77
2022/03/10 04:42:33;;;;;;;25.67;11.87;;;1.40;96.40;;;;;;4922687;29;20473;-77
2022/03/10 04:44:59;;;;;;;31.07;12.50;;;1.40;96.90;;;;;;4939492;29;20032;-78
2022/03/10 04:47:25;;;;;;;31.33;13.10;;;1.30;96.90;;;;;;4938822;29;20039;-78
2022/03/10 04:49:50;;;;;;;27.50;13.43;;;1.20;97.20;;;;;;4939386;29;20149;-78
2022/03/10 04:52:16;;;;;;;28.20;12.60;;;1.10;97.50;;;;;;4922025;29;20039;-78
2022/03/10 04:54:41;;;;;;;27.77;12.30;;;1.20;97.40;;;;;;4938871;29;20038;-77
2022/03/10 04:57:07;;;;;;;29.87;12.43;;;1.20;97.10;;;;;;4938788;29;20036;-77
2022/03/10 04:59:33;;;;;;;26.83;12.70;;;1.20;97.10;;;;;;4921964;29;20032;-77
2022/03/10 05:01:59;;;;;;;28.10;11.37;;;1.10;97.50;;;;;;4921837;29;20075;-77
2022/03/10 05:04:24;;;;;;;39.10;12.80;;;1.10;97.30;;;;;;4921991;29;20182;-77
2022/03/10 05:06:50;;;;;;;26.47;11.97;;;1.10;97.20;;;;;;4922614;29;20028;-76
2022/03/10 05:09:16;;;;;;;28.43;12.97;;;1.10;97.50;;;;;;4938361;29;20043;-77
2022/03/10 05:11:41;;;;;;;24.47;11.33;;;1.00;97.70;;;;;;4939465;29;20551;-77
2022/03/10 05:14:07;;;;;;;22.87;11.10;;;1.00;97.70;;;;;;4921571;29;20053;-76
2022/03/10 05:16:33;;;;;;;25.13;12.43;;;1.00;97.60;;;;;;4937550;29;20110;-77
2022/03/10 05:18:59;;;;;;;31.27;12.90;;;1.00;97.70;;;;;;4921779;29;20024;-77
2022/03/10 05:21:25;;;;;;;32.20;13.93;;;1.00;97.60;;;;;;4938245;29;20644;-77
2022/03/10 05:23:52;;;;;;;30.70;13.90;;;0.90;97.70;;;;;;4921807;29;20154;-79
2022/03/10 05:26:18;;;;;;;26.40;11.80;;;1.00;97.70;;;;;;4938077;29;20028;-78
2022/03/10 05:28:44;;;;;;;31.93;12.97;;;1.00;97.70;;;;;;4921841;29;20579;-77
2022/03/10 05:31:10;;;;;;;28.83;12.20;;;1.10;97.60;;;;;;4921131;29;20119;-78
2022/03/10 05:33:36;;;;;;;28.83;13.33;;;1.10;97.60;;;;;;4921674;29;20028;-77
2022/03/10 05:36:01;;;;;;;30.43;12.83;;;1.10;97.50;;;;;;4938596;29;20040;-78
2022/03/10 05:38:27;;;;;;;28.97;13.07;;;1.10;97.60;;;;;;4920550;29;20020;-77
2022/03/10 05:40:53;;;;;;;25.40;12.57;;;1.00;97.70;;;;;;4921847;29;20059;-77
2022/03/10 05:43:19;;;;;;;28.73;12.90;;;1.10;98.00;;;;;;4921355;29;20035;-78
2022/03/10 05:45:44;;;;;;;27.00;12.57;;;1.20;98.00;;;;;;4938559;29;20389;-78
2022/03/10 05:48:11;;;;;;;27.60;12.50;;;1.20;97.90;;;;;;4937981;29;20027;-77
2022/03/10 05:50:37;;;;;;;27.13;12.10;;;1.20;97.90;;;;;;4921088;29;20412;-78
2022/03/10 05:53:03;;;;;;;26.87;12.80;;;1.20;97.80;;;;;;4921248;29;20148;-78
2022/03/10 05:55:29;;;;;;;30.17;12.50;;;1.30;97.70;;;;;;4920415;29;20407;-78
2022/03/10 05:57:55;;;;;;;26.40;12.30;;;1.20;98.00;;;;;;4921531;29;20465;-77
2022/03/10 06:00:21;;;;;;;29.67;12.93;;;1.20;98.30;;;;;;4920702;29;20023;-78
2022/03/10 06:02:48;;;;;;;24.97;11.80;;;1.20;98.00;;;;;;4920739;29;20122;-77
2022/03/10 06:05:13;;;;;;;25.27;11.40;;;1.10;98.30;;;;;;4920019;29;20053;-77
2022/03/10 06:07:39;;;;;;;24.60;11.60;;;1.10;98.00;;;;;;4920945;29;20533;-78
2022/03/10 06:10:06;;;;;;;25.07;12.30;;;1.10;97.90;;;;;;4920907;29;20024;-77
2022/03/10 06:12:32;;;;;;;25.97;13.03;;;1.10;97.90;;;;;;4920283;29;20488;-77
2022/03/10 06:15:03;;;;;;;31.57;12.40;;;1.10;98.00;;;;;;4920222;29;20162;-77
2022/03/10 06:17:29;;;;;;;27.55;12.40;;;1.00;97.90;;;;;;4937175;29;20030;-77
2022/03/10 06:19:55;;;;;;;27.47;12.27;;;1.00;97.90;;;;;;4920426;29;20036;-77
2022/03/10 06:22:24;;;;;;;26.13;11.57;;;1.00;98.10;;;;;;4937089;29;20059;-77
2022/03/10 06:24:50;;;;;;;28.53;12.27;;;1.00;98.20;;;;;;4920433;29;20027;-77
2022/03/10 06:27:18;;;;;;;25.03;13.00;;;1.00;98.00;;;;;;4936841;29;20032;-77
2022/03/10 06:29:45;;;;;;;28.87;13.73;;;1.00;98.00;;;;;;4937538;29;20466;-77
2022/03/10 06:32:12;;;;;;;33.27;13.90;;;1.10;98.00;;;;;;4936958;29;20106;-77
2022/03/10 06:34:38;;;;;;;33.30;14.83;;;1.10;98.00;;;;;;4920594;29;20098;-77
2022/03/10 06:37:05;;;;;;;34.57;14.17;;;1.10;98.10;;;;;;4920611;29;20036;-77
2022/03/10 06:39:31;;;;;;;29.63;14.23;;;1.10;98.20;;;;;;4936786;29;20038;-77
2022/03/10 06:41:59;;;;;;;31.93;14.73;;;1.10;98.40;;;;;;4936671;29;20028;-77
2022/03/10 06:44:25;;;;;;;35.07;15.00;;;1.20;98.20;;;;;;4919753;29;20119;-77
2022/03/10 06:46:51;;;;;;;34.40;14.50;;;1.30;98.10;;;;;;4920169;29;20114;-77
2022/03/10 06:49:16;;;;;;;30.30;14.43;;;1.30;97.90;;;;;;4919634;29;20126;-77
2022/03/10 06:51:42;;;;;;;34.03;15.10;;;1.40;97.90;;;;;;4919784;29;20055;-78
2022/03/10 06:54:08;;;;;;;37.23;15.13;;;1.40;98.10;;;;;;4919730;29;20024;-78
2022/03/10 06:56:34;;;;;;;32.70;14.80;;;1.40;98.00;;;;;;4919011;29;20055;-77
2022/03/10 06:59:00;;;;;;;29.97;14.13;;;1.50;98.00;;;;;;4920036;29;20036;-78
2022/03/10 07:01:26;;;;;;;36.20;15.17;;;1.50;98.00;;;;;;4919376;29;20036;-78
2022/03/10 07:03:53;;;;;;;35.43;15.13;;;1.60;97.80;;;;;;4920127;29;20032;-78
2022/03/10 07:06:19;;;;;;;31.57;14.43;;;1.60;97.60;;;;;;4919447;29;20032;-78
2022/03/10 07:08:45;;;;;;;33.27;14.10;;;1.60;97.40;;;;;;4920128;29;20039;-77
2022/03/10 07:11:10;;;;;;;31.07;13.30;;;1.70;97.50;;;;;;4919790;29;20059;-77
2022/03/10 07:13:36;;;;;;;31.53;13.83;;;1.80;97.80;;;;;;4936661;29;20110;-78
2022/03/10 07:16:02;;;;;;;31.23;13.37;;;1.90;97.60;;;;;;4919762;29;20081;-78
2022/03/10 07:18:28;;;;;;;30.30;13.30;;;2.00;97.30;;;;;;4919019;29;20028;-78
2022/03/10 07:20:53;;;;;;;31.50;13.97;;;2.10;96.90;;;;;;4920000;29;20032;-78
2022/03/10 07:23:19;;;;;;;30.30;13.77;;;2.10;96.60;;;;;;4935512;29;20477;-78
2022/03/10 07:25:45;;;;;;;32.63;13.63;;;2.20;96.50;;;;;;4936075;29;20282;-78
2022/03/10 07:28:14;;;;;;;29.43;12.93;;;2.20;96.30;;;;;;4919718;29;20059;-78
2022/03/10 07:30:40;;;;;;;27.57;12.57;;;2.20;96.20;;;;;;4919448;29;20039;-78
2022/03/10 07:33:05;;;;;;;24.80;12.37;;;2.30;96.20;;;;;;4936533;29;20421;-77
2022/03/10 07:35:31;;;;;;;29.90;11.83;;;2.30;96.30;;;;;;4948377;29;20050;-78
2022/03/10 07:37:59;;;;;;;27.53;12.53;;;2.30;96.70;;;;;;4938856;29;20067;-78
2022/03/10 07:40:25;;;;;;;28.50;13.20;;;2.40;96.80;;;;;;4937546;29;20074;-77
2022/03/10 07:42:51;;;;;;;32.03;13.70;;;2.40;96.80;;;;;;4938000;29;20126;-77
2022/03/10 07:45:17;;;;;;;30.50;13.50;;;2.40;96.90;;;;;;4937557;29;20121;-77
2022/03/10 07:47:43;;;;;;;29.90;13.30;;;2.50;96.60;;;;;;4938193;29;20062;-77
2022/03/10 07:50:09;;;;;;;26.57;11.83;;;2.50;95.90;;;;;;4938438;29;20031;-78
2022/03/10 07:52:34;;;;;;;29.43;13.03;;;2.60;95.00;;;;;;4937417;29;20031;-76
2022/03/10 07:55:00;;;;;;;32.50;13.40;;;2.60;94.50;;;;;;4937518;29;20041;-76
2022/03/10 07:57:26;;;;;;;31.67;12.83;;;2.70;94.60;;;;;;4936799;29;20035;-76
2022/03/10 07:59:52;;;;;;;27.60;12.57;;;2.70;94.40;;;;;;4955007;29;20035;-76
2022/03/10 08:02:18;;;;;;;22.47;10.97;;;2.80;94.00;;;;;;4937281;29;20027;-76
2022/03/10 08:04:44;;;;;;;27.87;11.90;;;2.80;93.80;;;;;;4937579;29;20065;-76
2022/03/10 08:07:09;;;;;;;26.57;11.03;;;2.90;94.30;;;;;;4937452;29;20054;-76
2022/03/10 08:09:35;;;;;;;23.13;11.57;;;3.00;93.90;;;;;;4937283;29;20027;-77
2022/03/10 08:12:01;;;;;;;26.63;11.30;;;3.10;93.90;;;;;;4955054;29;20028;-78
2022/03/10 08:14:27;;;;;;;26.07;11.73;;;3.10;93.80;;;;;;4937741;29;20482;-78
2022/03/10 08:16:52;;;;;;;27.80;11.00;;;3.20;93.50;;;;;;4937108;29;20039;-78
2022/03/10 08:19:19;;;;;;;22.10;10.43;;;3.30;93.50;;;;;;4954651;29;20031;-78
2022/03/10 08:21:44;;;;;;;25.83;11.20;;;3.50;93.20;;;;;;4938049;29;20465;-78
2022/03/10 08:24:10;;;;;;;25.27;11.33;;;3.50;92.90;;;;;;4955126;29;20106;-78
2022/03/10 08:26:36;;;;;;;23.40;11.27;;;3.50;92.50;;;;;;4937126;29;20035;-77
2022/03/10 08:29:02;;;;;;;25.37;11.40;;;3.60;92.10;;;;;;4937706;29;20032;-77
2022/03/10 08:31:28;;;;;;;30.77;11.63;;;3.60;91.80;;;;;;4936747;29;20035;-78
2022/03/10 08:33:54;;;;;;;27.90;12.53;;;3.60;91.90;;;;;;4937768;29;20098;-78
2022/03/10 08:36:19;;;;;;;26.53;12.00;;;3.70;91.20;;;;;;4937231;29;20126;-78
2022/03/10 08:38:45;;;;;;;27.70;11.53;;;3.80;90.90;;;;;;4937534;29;20027;-77
2022/03/10 08:41:11;;;;;;;30.20;11.40;;;3.90;91.10;;;;;;4938016;29;20464;-78
2022/03/10 08:43:37;;;;;;;21.63;9.93;;;4.00;90.70;;;;;;4937372;29;20024;-78
2022/03/10 08:46:04;;;;;;;23.17;10.40;;;4.10;90.80;;;;;;4937671;29;20085;-79
2022/03/10 08:48:32;;;;;;;24.57;10.57;;;4.20;90.60;;;;;;4954772;29;20031;-78
2022/03/10 08:50:59;;;;;;;28.43;11.60;;;4.30;90.30;;;;;;4938916;29;20491;-78
2022/03/10 08:53:25;;;;;;;30.20;11.33;;;4.40;90.00;;;;;;4940949;29;20027;-78
2022/03/10 08:55:51;;;;;;;21.67;10.37;;;4.50;90.30;;;;;;4958682;29;20048;-78
2022/03/10 08:58:18;;;;;;;25.50;10.97;;;4.50;89.10;;;;;;4942655;29;20036;-79
2022/03/10 09:00:43;;;;;;;24.50;10.47;;;4.50;88.40;;;;;;4941923;29;20600;-78
2022/03/10 09:03:09;;;;;;;27.57;11.77;;;4.50;89.30;;;;;;4941339;29;20110;-78
2022/03/10 09:05:37;;;;;;;23.57;10.57;;;4.60;89.80;;;;;;4941934;29;20464;-77
2022/03/10 09:08:03;;;;;;;21.70;10.33;;;4.70;88.80;;;;;;4940988;29;20028;-78
2022/03/10 09:10:29;;;;;;;26.07;10.73;;;4.90;87.30;;;;;;4940391;29;20122;-78
2022/03/10 09:12:56;;;;;;;21.93;10.53;;;4.90;86.30;;;;;;4942162;29;20086;-78
2022/03/10 09:15:22;;;;;;;21.87;9.47;;;5.00;87.20;;;;;;4940688;29;20059;-78
2022/03/10 09:17:48;;;;;;;21.53;10.03;;;5.20;87.90;;;;;;4941101;29;20034;-78
2022/03/10 09:20:14;;;;;;;21.00;9.63;;;5.30;86.70;;;;;;4956482;29;20102;-77
2022/03/10 09:22:40;;;;;;;19.67;9.40;;;5.30;87.10;;;;;;4920951;29;20024;-78
2022/03/10 09:25:08;;;;;;;19.70;9.20;;;5.50;87.10;;;;;;4938550;29;20045;-78
2022/03/10 09:27:35;;;;;;;19.00;8.93;;;5.60;85.10;;;;;;4929998;29;20036;-78
2022/03/10 09:30:02;;;;;;;23.77;9.13;;;5.60;83.80;;;;;;4921487;29;20028;-78
2022/03/10 09:32:40;;;;;;;21.87;9.17;;;5.60;84.10;;;;;;4933608;29;20031;-79
2022/03/10 09:35:08;;;;;;;18.13;8.53;;;5.70;84.30;;;;;;4926938;29;20552;-78
2022/03/10 09:37:35;;;;;;;20.63;8.70;;;6.00;82.90;;;;;;4929517;29;20488;-78
2022/03/10 09:40:02;;;;;;;14.33;7.40;;;6.10;83.60;;;;;;4954549;29;20034;-78
2022/03/10 09:42:31;;;;;;;21.67;8.73;;;6.10;81.20;;;;;;4931100;29;20089;-78
2022/03/10 09:44:58;;;;;;;20.57;8.00;;;6.20;80.10;;;;;;4929967;29;20066;-77
2022/03/10 09:47:25;;;;;;;14.93;7.43;;;6.30;79.70;;;;;;4946155;29;20047;-78
2022/03/10 09:49:52;;;;;;;20.13;8.20;;;6.30;79.00;;;;;;4929575;29;20019;-78
2022/03/10 09:52:18;;;;;;;23.67;7.90;;;6.30;78.50;;;;;;4930457;29;20028;-78
2022/03/10 09:54:44;;;;;;;16.73;7.47;;;6.40;78.00;;;;;;4931948;29;20465;-79
2022/03/10 09:57:12;;;;;;;13.57;6.67;;;6.50;78.10;;;;;;4947220;29;20028;-78
2022/03/10 09:59:52;;;;;;;16.20;6.67;;;6.70;77.00;;;;;;4933852;29;20118;-78
2022/03/10 10:02:18;;;;;;;13.50;5.97;;;6.70;77.50;;;;;;4931835;29;20461;-79
2022/03/10 10:04:44;;;;;;;13.53;6.23;;;6.70;77.50;;;;;;4925924;29;20040;-79
2022/03/10 10:07:10;;;;;;;12.40;5.97;;;6.80;75.10;;;;;;4930676;29;20046;-78
2022/03/10 10:09:54;;;;;;;15.37;6.17;;;6.90;73.60;;;;;;4950715;29;20062;-79
2022/03/10 10:12:28;;;;;;;10.23;5.23;;;7.00;73.00;;;;;;4929782;29;20032;-78
2022/03/10 10:14:55;;;;;;;11.67;5.13;;;7.10;72.10;;;;;;4928160;29;20039;-78
2022/03/10 10:17:29;;;;;;;9.70;4.47;;;7.20;71.10;;;;;;4927657;29;20114;-78
2022/03/10 10:19:57;;;;;;;7.50;3.90;;;7.50;72.00;;;;;;4928224;29;20020;-78
2022/03/10 10:22:24;;;;;;;8.43;4.43;;;7.50;70.70;;;;;;4932260;29;20024;-78
2022/03/10 10:24:53;;;;;;;11.90;5.27;;;7.80;70.30;;;;;;4930158;29;20469;-79
2022/03/10 10:27:25;;;;;;;12.27;5.80;;;7.90;68.80;;;;;;4925557;29;20034;-78
2022/03/10 10:29:56;;;;;;;22.40;9.10;;;8.10;67.40;;;;;;4928247;29;20039;-78
2022/03/10 10:32:27;;;;;;;8.55;4.25;;;8.10;66.30;;;;;;4948289;29;20059;-78
2022/03/10 10:35:01;;;;;;;8.27;4.27;;;8.40;67.60;;;;;;4956140;29;20465;-79
2022/03/10 10:37:27;;;;;;;8.23;4.15;;;8.40;65.30;;;;;;4928903;29;20035;-78
2022/03/10 10:39:56;;;;;;;9.80;4.23;;;8.70;65.60;;;;;;4928547;29;20023;-77
2022/03/10 10:42:26;;;;;;;8.05;3.90;;;8.90;65.50;;;;;;4936019;29;20524;-75
2022/03/10 10:44:52;;;;;;;7.73;3.97;;;9.10;61.10;;;;;;4949567;29;20128;-75
2022/03/10 10:47:18;;;;;;;7.40;3.92;;;9.20;60.80;;;;;;4934397;29;20058;-75
2022/03/10 10:49:44;;;;;;;6.00;3.67;;;9.10;59.80;;;;;;4947959;29;20394;-76
2022/03/10 10:52:12;;;;;;;6.28;3.75;;;9.10;60.70;;;;;;4926239;29;20031;-76
2022/03/10 10:54:38;;;;;;;6.95;3.97;;;9.20;60.20;;;;;;4930798;29;20451;-76
2022/03/10 10:57:06;;;;;;;7.22;3.67;;;9.30;59.90;;;;;;4925097;29;20063;-78
2022/03/10 10:59:39;;;;;;;7.10;3.63;;;9.30;60.20;;;;;;4921449;29;20031;-76
2022/03/10 11:02:15;;;;;;;7.10;3.58;;;9.50;58.00;;;;;;4934138;29;20031;-76
2022/03/10 11:04:46;;;;;;;8.55;3.80;;;9.60;59.60;;;;;;4940618;29;20244;-80
2022/03/10 11:07:13;;;;;;;9.40;3.55;;;9.60;57.50;;;;;;4940430;29;20531;-79
2022/03/10 11:09:40;;;;;;;9.45;3.78;;;9.60;57.50;;;;;;4955874;29;20027;-79
2022/03/10 11:12:09;;;;;;;7.03;3.58;;;9.50;57.40;;;;;;4940505;29;20090;-79
2022/03/10 11:14:35;;;;;;;8.15;3.67;;;9.50;57.40;;;;;;4956166;28;20110;-78
2022/03/10 11:17:01;;;;;;;7.55;3.63;;;9.70;59.20;;;;;;4940198;29;20043;-78
2022/03/10 11:19:32;;;;;;;7.53;3.17;;;9.90;56.70;;;;;;4939177;29;20058;-77
2022/03/10 11:22:11;;;;;;;11.68;3.05;;;10.10;57.20;;;;;;4940413;29;20048;-76
2022/03/10 11:25:01;;;;;;;6.03;3.15;;;10.30;56.30;;;;;;4956270;29;20023;-77
2022/03/10 11:27:35;;;;;;;6.07;3.40;;;10.30;54.90;;;;;;4956271;29;20043;-78
2022/03/10 11:30:02;;;;;;;6.53;3.55;;;10.30;55.20;;;;;;4942208;29;20468;-77
2022/03/10 11:32:30;;;;;;;8.27;3.78;;;10.30;55.80;;;;;;4927926;29;20028;-78
2022/03/10 11:34:58;;;;;;;7.20;3.72;;;10.30;56.10;;;;;;4938146;29;20042;-78
2022/03/10 11:37:42;;;;;;;7.72;3.38;;;10.40;55.30;;;;;;4936824;29;20078;-79
2022/03/10 11:40:12;;;;;;;7.80;3.70;;;10.60;57.20;;;;;;4955300;29;20016;-78
2022/03/10 11:42:37;;;;;;;8.85;4.07;;;10.60;54.80;;;;;;4937472;29;20048;-77
2022/03/10 11:45:20;;;;;;;13.65;4.28;;;10.60;55.70;;;;;;4937735;29;20031;-78
2022/03/10 11:47:48;;;;;;;9.18;4.47;;;10.90;56.60;;;;;;4940454;29;20106;-77
2022/03/10 11:50:23;;;;;;;9.55;4.50;;;10.90;56.50;;;;;;4955246;29;20031;-78
2022/03/10 11:52:55;;;;;;;10.48;4.40;;;11.10;55.30;;;;;;4955027;29;20038;-77
2022/03/10 11:55:22;;;;;;;11.93;4.70;;;11.20;54.60;;;;;;4937367;29;20043;-77
2022/03/10 11:57:54;;;;;;;10.75;4.68;;;11.40;55.50;;;;;;4937696;29;20067;-76
2022/03/10 12:00:52;;;;;;;9.90;4.50;;;11.40;53.50;;;;;;4954574;29;20083;-75
2022/03/10 12:03:28;;;;;;;9.70;4.57;;;11.50;54.20;;;;;;4946507;29;20046;-77
2022/03/10 12:05:59;;;;;;;10.27;4.65;;;11.60;53.60;;;;;;4954550;28;20034;-75
2022/03/10 12:08:30;;;;;;;9.63;4.20;;;11.80;53.90;;;;;;4954739;29;20020;-77
2022/03/10 12:11:00;;;;;;;11.18;4.72;;;11.70;52.60;;;;;;4937021;29;20034;-77
2022/03/10 12:13:28;;;;;;;7.65;4.45;;;11.70;52.80;;;;;;4948567;29;20031;-74
2022/03/10 12:15:55;;;;;;;8.40;4.22;;;11.70;52.90;;;;;;4929820;29;20058;-75
2022/03/10 12:18:42;;;;;;;8.13;4.38;;;11.90;52.40;;;;;;4937275;29;20111;-75
2022/03/10 12:21:24;;;;;;;8.20;4.38;;;12.40;51.80;;;;;;4954640;29;20032;-77
2022/03/10 12:23:58;;;;;;;8.68;4.20;;;12.70;51.60;;;;;;4919034;29;20055;-76
2022/03/10 12:26:27;;;;;;;8.10;4.20;;;12.70;50.50;;;;;;4920621;29;20035;-76
2022/03/10 12:29:13;;;;;;;7.57;3.78;;;12.90;49.30;;;;;;4923301;29;20032;-76
2022/03/10 12:31:41;;;;;;;8.82;3.40;;;13.10;48.80;;;;;;4951903;29;20114;-77
2022/03/10 12:34:12;;;;;;;7.30;3.67;;;13.50;48.80;;;;;;4959684;29;20487;-76
2022/03/10 12:36:39;;;;;;;5.47;3.03;;;13.80;48.10;;;;;;4957795;28;20062;-76
2022/03/10 12:39:11;;;;;;;6.57;3.28;;;14.10;47.20;;;;;;4960332;28;20031;-77
2022/03/10 12:41:40;;;;;;;6.88;2.88;;;14.40;45.80;;;;;;4956893;28;20046;-77
2022/03/10 12:44:08;;;;;;;7.07;3.13;;;14.70;46.30;;;;;;4941470;29;20034;-77
2022/03/10 12:46:36;;;;;;;5.93;2.83;;;15.10;44.90;;;;;;4958794;29;20039;-77